createdAt,value
2019-03-23T00:01:56.137Z,8.77
2019-03-23T00:04:25.492Z,8.73
2019-03-23T00:06:53.989Z,8.57
2019-03-23T00:09:22.443Z,9.27
2019-03-23T00:11:51.019Z,8.40
2019-03-23T00:14:19.369Z,9.23
2019-03-23T00:16:47.845Z,8.80
2019-03-23T00:19:16.466Z,8.80
2019-03-23T00:21:44.804Z,9.30
2019-03-23T00:24:13.365Z,8.63
2019-03-23T00:26:41.700Z,9.47
2019-03-23T00:29:10.270Z,9.00
2019-03-23T00:31:38.545Z,8.93
2019-03-23T00:34:07.078Z,8.87
2019-03-23T00:36:41.528Z,8.87
2019-03-23T00:39:07.296Z,8.57
2019-03-23T00:41:35.953Z,9.00
2019-03-23T00:44:04.332Z,9.07
2019-03-23T00:46:33.064Z,8.57
2019-03-23T00:49:01.754Z,9.10
2019-03-23T00:51:33.312Z,9.40
2019-03-23T00:54:01.755Z,9.17
2019-03-23T00:56:30.282Z,9.10
2019-03-23T00:58:59.649Z,9.07
2019-03-23T01:01:28.028Z,9.30
2019-03-23T01:03:57.996Z,9.60
2019-03-23T01:06:26.574Z,8.57
2019-03-23T01:08:55.169Z,9.60
2019-03-23T01:11:23.649Z,9.67
2019-03-23T01:13:52.237Z,9.80
2019-03-23T01:16:20.943Z,9.30
2019-03-23T01:18:49.431Z,9.10
2019-03-23T01:21:18.220Z,9.20
2019-03-23T01:23:46.628Z,9.47
2019-03-23T01:26:15.344Z,8.83
2019-03-23T01:28:43.988Z,9.17
2019-03-23T01:31:12.430Z,9.57
2019-03-23T01:33:41.313Z,9.50
2019-03-23T01:36:09.830Z,9.47
2019-03-23T01:38:38.077Z,9.40
2019-03-23T01:41:06.492Z,9.87
2019-03-23T01:43:34.921Z,8.93
2019-03-23T01:46:03.333Z,10.07
2019-03-23T01:48:31.932Z,10.03
2019-03-23T01:51:00.615Z,9.80
2019-03-23T01:53:29.296Z,9.73
2019-03-23T01:55:57.982Z,9.60
2019-03-23T01:58:26.573Z,9.10
2019-03-23T02:00:55.272Z,9.67
2019-03-23T02:03:23.882Z,9.67
2019-03-23T02:05:52.465Z,9.47
2019-03-23T02:08:21.152Z,9.80
2019-03-23T02:10:49.870Z,9.43
2019-03-23T02:13:18.339Z,9.67
2019-03-23T02:15:46.832Z,9.93
2019-03-23T02:18:15.201Z,10.33
2019-03-23T02:20:44.802Z,9.73
2019-03-23T02:23:13.524Z,9.70
2019-03-23T02:25:41.955Z,10.33
2019-03-23T02:28:11.472Z,10.07
2019-03-23T02:30:40.383Z,9.80
2019-03-23T02:33:09.094Z,10.53
2019-03-23T02:35:37.474Z,9.83
2019-03-23T02:38:06.091Z,10.27
2019-03-23T02:40:34.720Z,9.93
2019-03-23T02:43:03.252Z,10.00
2019-03-23T02:45:32.080Z,9.63
2019-03-23T02:48:00.496Z,9.93
2019-03-23T02:50:29.090Z,10.30
2019-03-23T02:52:57.792Z,9.73
2019-03-23T02:55:26.297Z,10.40
2019-03-23T02:57:54.949Z,10.50
2019-03-23T03:00:23.682Z,9.40
2019-03-23T03:02:52.307Z,10.33
2019-03-23T03:05:21.206Z,10.20
2019-03-23T03:07:49.888Z,10.13
2019-03-23T03:10:40.371Z,9.63
2019-03-23T03:13:09.954Z,9.53
2019-03-23T03:15:38.468Z,10.23
2019-03-23T03:18:07.247Z,9.63
2019-03-23T03:20:35.639Z,9.90
2019-03-23T03:23:04.146Z,10.57
2019-03-23T03:25:32.456Z,9.03
2019-03-23T03:28:00.877Z,9.47
2019-03-23T03:30:29.326Z,9.63
2019-03-23T03:32:57.985Z,9.30
2019-03-23T03:35:26.355Z,10.73
2019-03-23T03:37:56.864Z,9.60
2019-03-23T03:40:25.260Z,9.90
2019-03-23T03:42:53.622Z,9.63
2019-03-23T03:45:25.888Z,9.40
2019-03-23T03:47:54.397Z,9.80
2019-03-23T03:50:22.865Z,9.43
2019-03-23T03:52:51.426Z,10.10
2019-03-23T03:55:20.109Z,11.03
2019-03-23T03:57:48.636Z,10.90
2019-03-23T04:00:17.495Z,9.60
2019-03-23T04:02:45.926Z,10.20
2019-03-23T04:05:14.675Z,10.77
2019-03-23T04:07:43.210Z,10.03
2019-03-23T04:10:11.852Z,11.17
2019-03-23T04:12:40.356Z,10.17
2019-03-23T04:15:09.022Z,10.23
2019-03-23T04:17:38.523Z,10.70
2019-03-23T04:20:07.408Z,10.77
2019-03-23T04:22:35.841Z,11.20
2019-03-23T04:25:04.572Z,11.00
2019-03-23T04:27:33.054Z,10.60
2019-03-23T04:30:01.264Z,11.10
2019-03-23T04:32:29.569Z,10.43
2019-03-23T04:34:58.280Z,10.90
2019-03-23T04:37:26.678Z,10.83
2019-03-23T04:39:55.293Z,11.47
2019-03-23T04:42:23.794Z,11.17
2019-03-23T04:44:52.193Z,10.97
2019-03-23T04:47:20.544Z,10.77
2019-03-23T04:49:49.077Z,9.87
2019-03-23T04:52:17.477Z,10.43
2019-03-23T04:54:45.827Z,11.30
2019-03-23T04:57:14.472Z,10.33
2019-03-23T04:59:42.994Z,10.63
2019-03-23T05:02:11.429Z,10.33
2019-03-23T05:04:40.077Z,10.83
2019-03-23T05:07:08.608Z,10.10
2019-03-23T05:09:37.531Z,10.87
2019-03-23T05:12:05.964Z,10.43
2019-03-23T05:14:34.399Z,11.77
2019-03-23T05:17:02.892Z,10.83
2019-03-23T05:19:31.560Z,11.47
2019-03-23T05:22:00.020Z,11.40
2019-03-23T05:24:28.548Z,10.53
2019-03-23T05:26:56.873Z,11.77
2019-03-23T05:29:25.493Z,11.07
2019-03-23T05:31:53.895Z,11.93
2019-03-23T05:34:22.371Z,12.43
2019-03-23T05:36:50.715Z,11.60
2019-03-23T05:39:19.192Z,12.13
2019-03-23T05:41:47.676Z,11.20
2019-03-23T05:44:16.110Z,12.13
2019-03-23T05:46:44.494Z,11.53
2019-03-23T05:49:13.063Z,11.60
2019-03-23T05:51:41.593Z,11.73
2019-03-23T05:54:09.909Z,13.70
2019-03-23T05:56:38.442Z,13.20
2019-03-23T05:59:07.172Z,14.97
2019-03-23T06:01:35.555Z,13.40
2019-03-23T06:04:04.142Z,11.20
2019-03-23T06:06:32.578Z,11.00
2019-03-23T06:09:01.002Z,11.17
2019-03-23T06:11:30.928Z,9.33
2019-03-23T06:13:59.493Z,9.83
2019-03-23T06:16:27.993Z,8.97
2019-03-23T06:18:56.533Z,9.20
2019-03-23T06:21:25.335Z,9.00
2019-03-23T06:23:54.036Z,9.53
2019-03-23T06:26:22.289Z,8.87
2019-03-23T06:28:50.579Z,8.50
2019-03-23T06:31:19.092Z,8.40
2019-03-23T06:33:47.380Z,9.00
2019-03-23T06:36:16.017Z,8.23
2019-03-23T06:38:44.520Z,8.40
2019-03-23T06:41:13.031Z,8.33
2019-03-23T06:43:41.547Z,8.87
2019-03-23T06:46:09.971Z,8.23
2019-03-23T06:48:38.543Z,8.93
2019-03-23T06:51:07.206Z,9.23
2019-03-23T06:53:35.528Z,9.97
2019-03-23T06:56:04.533Z,8.97
2019-03-23T06:58:32.976Z,9.03
2019-03-23T07:01:01.369Z,9.57
2019-03-23T07:03:29.911Z,9.17
2019-03-23T07:05:58.319Z,8.97
2019-03-23T07:08:31.994Z,9.43
2019-03-23T07:10:59.715Z,9.03
2019-03-23T07:13:28.413Z,8.40
2019-03-23T07:15:56.954Z,9.00
2019-03-23T07:18:25.334Z,9.53
2019-03-23T07:20:53.724Z,8.60
2019-03-23T07:23:22.042Z,9.30
2019-03-23T07:25:50.596Z,8.57
2019-03-23T07:28:19.287Z,8.77
2019-03-23T07:30:47.789Z,9.70
2019-03-23T07:33:17.231Z,9.03
2019-03-23T07:35:47.067Z,8.77
2019-03-23T07:38:15.364Z,8.23
2019-03-23T07:40:45.019Z,8.67
2019-03-23T07:43:13.562Z,8.57
2019-03-23T07:45:42.233Z,8.83
2019-03-23T07:48:10.629Z,8.77
2019-03-23T07:50:39.597Z,8.70
2019-03-23T07:53:08.097Z,8.53
2019-03-23T07:55:36.653Z,9.37
2019-03-23T07:58:05.123Z,8.30
2019-03-23T08:00:33.756Z,8.75
2019-03-23T08:03:02.463Z,9.13
2019-03-23T08:05:31.069Z,9.28
2019-03-23T08:07:59.575Z,8.33
2019-03-23T08:10:29.466Z,8.68
2019-03-23T08:12:58.122Z,8.98
2019-03-23T08:15:26.610Z,9.68
2019-03-23T08:17:56.161Z,9.23
2019-03-23T08:20:24.493Z,8.40
2019-03-23T08:22:53.127Z,9.45
2019-03-23T08:25:21.899Z,8.48
2019-03-23T08:27:50.512Z,8.80
2019-03-23T08:30:19.150Z,10.25
2019-03-23T08:32:48.802Z,9.53
2019-03-23T08:35:18.604Z,8.78
2019-03-23T08:37:47.203Z,9.20
2019-03-23T08:40:15.992Z,10.70
2019-03-23T08:42:45.621Z,10.10
2019-03-23T08:45:14.337Z,11.08
2019-03-23T08:47:42.777Z,11.12
2019-03-23T08:50:11.578Z,10.50
2019-03-23T08:52:40.164Z,10.68
2019-03-23T08:55:08.712Z,11.10
2019-03-23T08:57:37.346Z,12.00
2019-03-23T09:00:06.248Z,12.70
2019-03-23T09:02:36.366Z,12.15
2019-03-23T09:05:05.225Z,13.28
2019-03-23T09:07:33.892Z,12.03
2019-03-23T09:10:02.374Z,12.73
2019-03-23T09:12:30.983Z,14.00
2019-03-23T09:14:59.763Z,13.60
2019-03-23T09:17:28.355Z,13.53
2019-03-23T09:19:57.028Z,13.10
2019-03-23T09:22:25.651Z,12.43
2019-03-23T09:24:56.985Z,13.43
2019-03-23T09:27:25.053Z,12.63
2019-03-23T09:29:53.583Z,12.73
2019-03-23T09:32:21.959Z,12.47
2019-03-23T09:34:50.883Z,11.65
2019-03-23T09:37:19.432Z,12.58
2019-03-23T09:39:47.796Z,12.40
2019-03-23T09:42:16.398Z,12.35
2019-03-23T09:44:45.060Z,12.98
2019-03-23T09:47:13.805Z,12.33
2019-03-23T09:49:42.409Z,11.18
2019-03-23T09:52:11.026Z,12.15
2019-03-23T09:54:39.649Z,11.30
2019-03-23T09:57:08.124Z,11.12
2019-03-23T09:59:36.624Z,12.20
2019-03-23T10:02:05.100Z,13.95
2019-03-23T10:04:33.666Z,13.83
2019-03-23T10:07:01.966Z,13.32
2019-03-23T10:09:30.517Z,12.93
2019-03-23T10:11:59.617Z,12.82
2019-03-23T10:14:28.194Z,12.98
2019-03-23T10:16:56.503Z,12.80
2019-03-23T10:19:24.943Z,13.20
2019-03-23T10:21:53.439Z,12.15
2019-03-23T10:24:24.805Z,13.10
2019-03-23T10:26:53.165Z,14.20
2019-03-23T10:29:22.568Z,13.13
2019-03-23T10:31:51.181Z,13.20
2019-03-23T10:34:19.724Z,12.90
2019-03-23T10:36:48.026Z,12.73
2019-03-23T10:39:17.345Z,12.75
2019-03-23T10:41:45.767Z,14.47
2019-03-23T10:44:14.400Z,12.93
2019-03-23T10:46:43.038Z,13.25
2019-03-23T10:49:11.403Z,12.63
2019-03-23T10:51:39.773Z,13.48
2019-03-23T10:54:08.385Z,13.05
2019-03-23T10:56:36.814Z,12.47
2019-03-23T10:59:05.389Z,12.18
2019-03-23T11:01:34.783Z,12.88
2019-03-23T11:04:03.323Z,13.25
2019-03-23T11:06:31.936Z,13.40
2019-03-23T11:09:00.387Z,12.45
2019-03-23T11:11:28.715Z,11.15
2019-03-23T11:13:57.078Z,11.45
2019-03-23T11:16:25.359Z,12.85
2019-03-23T11:18:53.981Z,12.28
2019-03-23T11:21:22.250Z,12.70
2019-03-23T11:23:50.719Z,12.85
2019-03-23T11:26:19.387Z,12.93
2019-03-23T11:28:47.922Z,12.50
2019-03-23T11:31:16.695Z,12.07
2019-03-23T11:33:46.099Z,14.05
2019-03-23T11:36:14.438Z,13.03
2019-03-23T11:38:42.974Z,12.33
2019-03-23T11:41:11.346Z,12.45
2019-03-23T11:43:39.852Z,11.90
2019-03-23T11:46:08.412Z,10.93
2019-03-23T11:48:36.874Z,11.80
2019-03-23T11:51:06.274Z,11.53
2019-03-23T11:53:34.779Z,12.10
2019-03-23T11:56:03.209Z,12.15
2019-03-23T11:58:33.691Z,12.65
2019-03-23T12:01:02.164Z,12.78
2019-03-23T12:03:30.607Z,11.90
2019-03-23T12:05:59.180Z,12.30
2019-03-23T12:08:27.781Z,11.60
2019-03-23T12:11:02.946Z,11.85
2019-03-23T12:13:26.944Z,11.50
2019-03-23T12:15:55.504Z,11.28
2019-03-23T12:18:24.120Z,11.30
2019-03-23T12:20:52.609Z,11.73
2019-03-23T12:23:21.188Z,10.20
2019-03-23T12:25:49.710Z,11.05
2019-03-23T12:28:18.228Z,11.40
2019-03-23T12:30:46.786Z,10.68
2019-03-23T12:33:15.329Z,11.50
2019-03-23T12:35:43.749Z,9.73
2019-03-23T12:38:12.052Z,10.32
2019-03-23T12:40:40.412Z,11.57
2019-03-23T12:43:08.946Z,11.50
2019-03-23T12:45:38.899Z,12.03
2019-03-23T12:48:07.701Z,11.75
2019-03-23T12:50:36.019Z,11.55
2019-03-23T12:53:04.675Z,12.03
2019-03-23T12:55:33.385Z,7.53
2019-03-23T12:58:03.560Z,8.38
2019-03-23T13:00:32.224Z,8.78
2019-03-23T13:03:00.823Z,8.68
2019-03-23T13:05:29.259Z,9.50
2019-03-23T13:07:59.855Z,10.35
2019-03-23T13:10:28.648Z,10.40
2019-03-23T13:12:58.455Z,9.60
2019-03-23T13:15:27.401Z,9.90
2019-03-23T13:17:56.064Z,10.15
2019-03-23T13:20:24.596Z,11.12
2019-03-23T13:22:53.203Z,10.68
2019-03-23T13:25:21.708Z,10.78
2019-03-23T13:27:51.667Z,10.30
2019-03-23T13:30:20.441Z,9.13
2019-03-23T13:32:49.044Z,10.80
2019-03-23T13:35:17.884Z,9.80
2019-03-23T13:37:46.333Z,8.88
2019-03-23T13:40:16.431Z,9.53
2019-03-23T13:42:45.013Z,10.60
2019-03-23T13:45:15.351Z,9.45
2019-03-23T13:47:43.851Z,10.25
2019-03-23T13:50:16.244Z,10.10
2019-03-23T13:52:44.813Z,9.48
2019-03-23T13:55:24.409Z,10.78
2019-03-23T13:57:54.057Z,10.00
2019-03-23T14:00:23.549Z,10.65
2019-03-23T14:02:52.015Z,9.63
2019-03-23T14:05:20.420Z,10.63
2019-03-23T14:07:52.589Z,9.68
2019-03-23T14:10:20.968Z,9.58
2019-03-23T14:12:49.602Z,9.35
2019-03-23T14:15:18.062Z,9.55
2019-03-23T14:17:46.732Z,9.40
2019-03-23T14:20:15.015Z,9.40
2019-03-23T14:22:43.396Z,8.75
2019-03-23T14:25:20.023Z,10.48
2019-03-23T14:27:48.600Z,9.18
2019-03-23T14:30:18.037Z,9.48
2019-03-23T14:32:46.644Z,9.20
2019-03-23T14:35:14.869Z,9.30
2019-03-23T14:37:43.476Z,8.33
2019-03-23T14:40:11.764Z,9.35
2019-03-23T14:42:40.338Z,10.43
2019-03-23T14:45:08.721Z,9.45
2019-03-23T14:47:37.505Z,9.28
2019-03-23T14:50:06.160Z,10.50
2019-03-23T14:52:35.013Z,9.60
2019-03-23T14:55:03.383Z,9.80
2019-03-23T14:57:35.524Z,9.50
2019-03-23T15:00:05.228Z,9.40
2019-03-23T15:02:34.882Z,9.23
2019-03-23T15:05:06.824Z,8.07
2019-03-23T15:07:35.474Z,9.53
2019-03-23T15:10:05.202Z,8.70
2019-03-23T15:12:34.002Z,9.07
2019-03-23T15:15:02.451Z,8.80
2019-03-23T15:17:30.922Z,9.73
2019-03-23T15:20:00.972Z,8.93
2019-03-23T15:22:29.459Z,10.13
2019-03-23T15:24:58.033Z,9.63
2019-03-23T15:27:26.434Z,9.80
2019-03-23T15:29:55.201Z,8.87
2019-03-23T15:32:23.586Z,8.97
2019-03-23T15:34:52.082Z,8.73
2019-03-23T15:37:20.572Z,9.37
2019-03-23T15:39:49.155Z,9.77
2019-03-23T15:42:24.712Z,9.33
2019-03-23T15:44:47.986Z,9.53
2019-03-23T15:47:16.402Z,9.30
2019-03-23T15:49:44.736Z,8.70
2019-03-23T15:52:13.089Z,8.53
2019-03-23T15:54:41.438Z,9.10
2019-03-23T15:57:09.773Z,9.03
2019-03-23T15:59:38.251Z,8.83
2019-03-23T16:02:07.346Z,8.23
2019-03-23T16:04:36.976Z,9.53
2019-03-23T16:07:05.632Z,7.97
2019-03-23T16:09:34.630Z,8.27
2019-03-23T16:12:03.247Z,8.90
2019-03-23T16:14:33.449Z,7.87
2019-03-23T16:17:02.111Z,8.23
2019-03-23T16:19:30.685Z,7.70
2019-03-23T16:22:00.184Z,7.60
2019-03-23T16:24:28.762Z,7.23
2019-03-23T16:26:57.593Z,7.73
2019-03-23T16:29:25.996Z,7.53
2019-03-23T16:31:54.591Z,6.67
2019-03-23T16:34:24.245Z,7.20
2019-03-23T16:36:52.940Z,7.27
2019-03-23T16:39:21.264Z,5.87
2019-03-23T16:41:49.658Z,5.50
2019-03-23T16:44:17.970Z,5.53
2019-03-23T16:46:46.690Z,6.10
2019-03-23T16:49:15.246Z,5.13
2019-03-23T16:51:43.495Z,5.27
2019-03-23T16:54:12.607Z,6.33
2019-03-23T16:56:41.190Z,6.43
2019-03-23T16:59:09.575Z,7.60
2019-03-23T17:01:38.033Z,12.13
2019-03-23T17:04:06.633Z,28.30
2019-03-23T17:06:45.847Z,29.07
2019-03-23T17:09:05.714Z,43.37
2019-03-23T17:11:34.242Z,20.20
2019-03-23T17:14:02.912Z,33.07
2019-03-23T17:16:31.259Z,41.73
2019-03-23T17:18:59.672Z,22.90
2019-03-23T17:21:28.113Z,15.20
2019-03-23T17:23:56.574Z,19.43
2019-03-23T17:26:25.720Z,29.10
2019-03-23T17:28:54.178Z,38.20
2019-03-23T17:31:22.724Z,37.73
2019-03-23T17:33:51.387Z,12.33
2019-03-23T17:36:19.711Z,8.30
2019-03-23T17:38:48.333Z,12.40
2019-03-23T17:41:16.822Z,17.60
2019-03-23T17:43:45.345Z,13.00
2019-03-23T17:46:13.749Z,6.00
2019-03-23T17:48:42.155Z,6.80
2019-03-23T17:51:10.466Z,6.57
2019-03-23T17:53:38.991Z,6.73
2019-03-23T17:56:07.538Z,7.30
2019-03-23T17:58:36.159Z,6.90
2019-03-23T18:01:05.537Z,7.37
2019-03-23T18:03:34.108Z,7.77
2019-03-23T18:06:02.769Z,7.67
2019-03-23T18:08:31.076Z,7.70
2019-03-23T18:10:59.645Z,7.47
2019-03-23T18:13:28.140Z,7.63
2019-03-23T18:15:57.207Z,9.40
2019-03-23T18:18:25.668Z,9.83
2019-03-23T18:20:54.393Z,8.83
2019-03-23T18:23:22.756Z,9.13
2019-03-23T18:25:51.418Z,8.40
2019-03-23T18:28:20.006Z,8.10
2019-03-23T18:30:48.610Z,8.10
2019-03-23T18:33:17.044Z,7.57
2019-03-23T18:35:48.393Z,8.80
2019-03-23T18:38:16.957Z,7.87
2019-03-23T18:40:45.710Z,8.20
2019-03-23T18:43:14.153Z,8.13
2019-03-23T18:45:42.618Z,7.63
2019-03-23T18:48:10.988Z,7.30
2019-03-23T18:50:39.358Z,7.67
2019-03-23T18:53:08.317Z,7.27
2019-03-23T18:55:36.832Z,7.63
2019-03-23T18:58:05.415Z,7.60
2019-03-23T19:00:36.015Z,7.30
2019-03-23T19:03:04.733Z,6.97
2019-03-23T19:05:33.248Z,7.53
2019-03-23T19:08:01.811Z,6.13
2019-03-23T19:10:30.162Z,6.23
2019-03-23T19:12:58.659Z,6.00
2019-03-23T19:15:27.428Z,6.83
2019-03-23T19:17:55.778Z,7.77
2019-03-23T19:20:24.150Z,6.80
2019-03-23T19:22:52.508Z,6.53
2019-03-23T19:25:20.862Z,6.03
2019-03-23T19:27:49.481Z,6.80
2019-03-23T19:30:18.310Z,7.00
2019-03-23T19:32:46.723Z,6.40
2019-03-23T19:35:15.008Z,10.23
2019-03-23T19:37:43.499Z,9.20
2019-03-23T19:40:11.824Z,8.70
2019-03-23T19:42:41.280Z,8.17
2019-03-23T19:45:10.390Z,8.43
2019-03-23T19:47:38.980Z,8.60
2019-03-23T19:50:07.741Z,8.13
2019-03-23T19:52:36.198Z,7.47
2019-03-23T19:55:04.455Z,8.23
2019-03-23T19:57:32.685Z,8.10
2019-03-23T20:00:00.823Z,8.13
2019-03-23T20:02:29.043Z,8.23
2019-03-23T20:04:58.228Z,9.33
2019-03-23T20:07:33.017Z,11.23
2019-03-23T20:09:56.515Z,11.93
2019-03-23T20:12:24.803Z,10.37
2019-03-23T20:14:53.821Z,10.03
2019-03-23T20:17:22.073Z,9.83
2019-03-23T20:19:50.217Z,8.80
2019-03-23T20:22:18.661Z,10.00
2019-03-23T20:24:46.704Z,9.70
2019-03-23T20:27:15.009Z,9.63
2019-03-23T20:29:43.149Z,9.80
2019-03-23T20:32:11.444Z,10.50
2019-03-23T20:34:39.616Z,11.27
2019-03-23T20:37:08.510Z,12.00
2019-03-23T20:39:36.829Z,10.63
2019-03-23T20:42:05.110Z,11.07
2019-03-23T20:44:33.204Z,10.10
2019-03-23T20:47:01.515Z,10.13
2019-03-23T20:49:30.364Z,10.13
2019-03-23T20:51:58.634Z,11.40
2019-03-23T20:54:27.464Z,11.23
2019-03-23T20:56:55.734Z,11.13
2019-03-23T20:59:25.295Z,12.00
2019-03-23T21:01:53.553Z,11.33
2019-03-23T21:04:21.955Z,12.53
2019-03-23T21:06:51.912Z,11.20
2019-03-23T21:09:20.228Z,10.87
2019-03-23T21:11:48.374Z,11.67
2019-03-23T21:14:20.469Z,10.87
2019-03-23T21:16:46.710Z,11.10
2019-03-23T21:19:14.963Z,11.10
2019-03-23T21:21:43.182Z,13.80
2019-03-23T21:24:11.440Z,11.70
2019-03-23T21:26:39.575Z,11.90
2019-03-23T21:29:07.728Z,12.57
2019-03-23T21:31:35.884Z,13.30
2019-03-23T21:34:04.172Z,12.77
2019-03-23T21:36:32.313Z,11.83
2019-03-23T21:39:00.595Z,11.40
2019-03-23T21:41:28.691Z,12.50
2019-03-23T21:43:56.859Z,11.83
2019-03-23T21:46:25.015Z,12.00
2019-03-23T21:48:53.364Z,10.77
2019-03-23T21:51:21.530Z,11.73
2019-03-23T21:53:50.009Z,10.90
2019-03-23T21:56:18.289Z,11.03
2019-03-23T21:58:46.512Z,11.10
2019-03-23T22:01:14.972Z,11.60
2019-03-23T22:03:43.271Z,11.60
2019-03-23T22:06:11.523Z,11.30
2019-03-23T22:08:39.745Z,10.90
2019-03-23T22:11:08.074Z,11.23
2019-03-23T22:13:36.393Z,12.30
2019-03-23T22:16:05.390Z,11.77
2019-03-23T22:18:33.960Z,12.73
2019-03-23T22:21:02.223Z,13.57
2019-03-23T22:23:30.358Z,15.50
2019-03-23T22:25:58.646Z,14.27
2019-03-23T22:28:26.814Z,14.73
2019-03-23T22:30:56.083Z,13.23
2019-03-23T22:33:24.207Z,12.80
2019-03-23T22:35:52.496Z,12.57
2019-03-23T22:38:20.641Z,13.07
2019-03-23T22:40:48.903Z,12.30
2019-03-23T22:43:16.980Z,13.37
2019-03-23T22:45:46.555Z,14.23
2019-03-23T22:48:14.695Z,13.43
2019-03-23T22:50:42.968Z,13.97
2019-03-23T22:53:11.059Z,13.87
2019-03-23T22:55:39.263Z,15.13
2019-03-23T22:58:07.392Z,15.77
2019-03-23T23:00:43.092Z,16.10
2019-03-23T23:03:12.180Z,16.63
2019-03-23T23:05:40.423Z,16.07
2019-03-23T23:08:08.528Z,16.27
2019-03-23T23:10:36.841Z,15.47
2019-03-23T23:13:04.982Z,14.47
2019-03-23T23:15:33.459Z,16.13
2019-03-23T23:18:02.803Z,14.13
2019-03-23T23:20:31.129Z,14.93
2019-03-23T23:22:59.309Z,14.20
2019-03-23T23:25:27.530Z,15.03
2019-03-23T23:27:55.744Z,15.40
2019-03-23T23:30:23.927Z,15.73
2019-03-23T23:32:52.053Z,14.23
2019-03-23T23:35:20.331Z,14.10
2019-03-23T23:37:49.459Z,13.10
2019-03-23T23:40:17.619Z,14.73
2019-03-23T23:42:45.730Z,13.93
2019-03-23T23:45:15.715Z,13.90
2019-03-23T23:47:43.987Z,13.47
2019-03-23T23:50:12.330Z,13.63
2019-03-23T23:52:40.495Z,12.97
2019-03-23T23:55:11.921Z,12.07
2019-03-23T23:57:40.184Z,12.03
